sensor_id;sensor_type;location;lat;lon;timestamp;P1;durP1;ratioP1;P2;durP2;ratioP2
45836;SDS011;31548;51.420;-0.040;2023-05-27T00:02:19;8.85;;;1.55;;
45836;SDS011;31548;51.420;-0.040;2023-05-27T00:04:47;20.63;;;3.35;;
45836;SDS011;31548;51.420;-0.040;2023-05-27T00:07:14;13.57;;;1.70;;
45836;SDS011;31548;51.420;-0.040;2023-05-27T00:09:42;15.90;;;2.08;;
45836;SDS011;31548;51.420;-0.040;2023-05-27T00:12:09;12.95;;;1.83;;
45836;SDS011;31548;51.420;-0.040;2023-05-27T00:14:36;15.02;;;1.85;;
45836;SDS011;31548;51.420;-0.040;2023-05-27T00:17:04;10.02;;;1.70;;
45836;SDS011;31548;51.420;-0.040;2023-05-27T00:19:31;14.18;;;1.73;;
45836;SDS011;31548;51.420;-0.040;2023-05-27T00:21:59;16.33;;;2.28;;
45836;SDS011;31548;51.420;-0.040;2023-05-27T00:24:26;25.42;;;2.15;;
45836;SDS011;31548;51.420;-0.040;2023-05-27T00:26:53;11.57;;;1.75;;
45836;SDS011;31548;51.420;-0.040;2023-05-27T00:29:21;20.83;;;2.17;;
45836;SDS011;31548;51.420;-0.040;2023-05-27T00:31:49;12.35;;;1.90;;
45836;SDS011;31548;51.420;-0.040;2023-05-27T00:34:16;14.82;;;2.35;;
45836;SDS011;31548;51.420;-0.040;2023-05-27T00:36:43;15.48;;;2.40;;
45836;SDS011;31548;51.420;-0.040;2023-05-27T00:39:12;10.43;;;1.52;;
45836;SDS011;31548;51.420;-0.040;2023-05-27T00:41:40;16.02;;;2.17;;
45836;SDS011;31548;51.420;-0.040;2023-05-27T00:44:13;20.27;;;2.33;;
45836;SDS011;31548;51.420;-0.040;2023-05-27T00:46:41;14.65;;;1.80;;
45836;SDS011;31548;51.420;-0.040;2023-05-27T00:49:09;18.08;;;2.33;;
45836;SDS011;31548;51.420;-0.040;2023-05-27T00:51:36;10.80;;;1.70;;
45836;SDS011;31548;51.420;-0.040;2023-05-27T00:54:04;13.68;;;2.05;;
45836;SDS011;31548;51.420;-0.040;2023-05-27T00:56:33;16.13;;;1.60;;
45836;SDS011;31548;51.420;-0.040;2023-05-27T00:59:02;12.23;;;1.50;;
45836;SDS011;31548;51.420;-0.040;2023-05-27T01:01:30;14.52;;;2.20;;
45836;SDS011;31548;51.420;-0.040;2023-05-27T01:04:00;16.45;;;2.20;;
45836;SDS011;31548;51.420;-0.040;2023-05-27T01:15:33;18.92;;;2.05;;
45836;SDS011;31548;51.420;-0.040;2023-05-27T01:18:02;19.55;;;2.30;;
45836;SDS011;31548;51.420;-0.040;2023-05-27T01:20:30;17.48;;;2.45;;
45836;SDS011;31548;51.420;-0.040;2023-05-27T01:22:59;18.27;;;1.95;;
45836;SDS011;31548;51.420;-0.040;2023-05-27T01:25:28;10.95;;;1.90;;
45836;SDS011;31548;51.420;-0.040;2023-05-27T01:27:56;12.70;;;1.77;;
45836;SDS011;31548;51.420;-0.040;2023-05-27T01:30:23;12.70;;;1.48;;
45836;SDS011;31548;51.420;-0.040;2023-05-27T01:38:05;12.63;;;1.95;;
45836;SDS011;31548;51.420;-0.040;2023-05-27T01:40:37;15.18;;;2.35;;
45836;SDS011;31548;51.420;-0.040;2023-05-27T01:43:07;16.30;;;2.03;;
45836;SDS011;31548;51.420;-0.040;2023-05-27T01:45:38;14.98;;;1.63;;
45836;SDS011;31548;51.420;-0.040;2023-05-27T01:48:05;11.27;;;2.05;;
45836;SDS011;31548;51.420;-0.040;2023-05-27T01:50:33;15.77;;;2.05;;
45836;SDS011;31548;51.420;-0.040;2023-05-27T01:53:01;14.90;;;2.13;;
45836;SDS011;31548;51.420;-0.040;2023-05-27T01:55:30;15.70;;;1.90;;
45836;SDS011;31548;51.420;-0.040;2023-05-27T01:57:58;13.20;;;1.85;;
45836;SDS011;31548;51.420;-0.040;2023-05-27T02:00:25;15.32;;;1.67;;
45836;SDS011;31548;51.420;-0.040;2023-05-27T02:02:53;16.45;;;2.20;;
45836;SDS011;31548;51.420;-0.040;2023-05-27T02:05:20;13.77;;;1.83;;
45836;SDS011;31548;51.420;-0.040;2023-05-27T02:07:48;19.83;;;2.55;;
45836;SDS011;31548;51.420;-0.040;2023-05-27T02:10:15;16.50;;;2.50;;
45836;SDS011;31548;51.420;-0.040;2023-05-27T02:12:42;12.70;;;2.75;;
45836;SDS011;31548;51.420;-0.040;2023-05-27T02:15:11;17.13;;;2.70;;
45836;SDS011;31548;51.420;-0.040;2023-05-27T02:17:38;15.13;;;2.45;;
45836;SDS011;31548;51.420;-0.040;2023-05-27T02:20:06;23.25;;;3.63;;
45836;SDS011;31548;51.420;-0.040;2023-05-27T02:22:34;15.85;;;2.45;;
45836;SDS011;31548;51.420;-0.040;2023-05-27T02:25:02;15.85;;;1.98;;
45836;SDS011;31548;51.420;-0.040;2023-05-27T02:27:29;15.45;;;2.55;;
45836;SDS011;31548;51.420;-0.040;2023-05-27T02:29:57;13.43;;;2.85;;
45836;SDS011;31548;51.420;-0.040;2023-05-27T02:32:24;19.17;;;2.63;;
45836;SDS011;31548;51.420;-0.040;2023-05-27T02:34:51;19.58;;;2.47;;
45836;SDS011;31548;51.420;-0.040;2023-05-27T02:37:19;14.13;;;1.90;;
45836;SDS011;31548;51.420;-0.040;2023-05-27T02:39:47;14.70;;;2.25;;
45836;SDS011;31548;51.420;-0.040;2023-05-27T02:42:14;13.43;;;2.30;;
45836;SDS011;31548;51.420;-0.040;2023-05-27T02:44:42;15.27;;;2.33;;
45836;SDS011;31548;51.420;-0.040;2023-05-27T02:47:09;17.00;;;2.90;;
45836;SDS011;31548;51.420;-0.040;2023-05-27T02:49:38;20.83;;;2.38;;
45836;SDS011;31548;51.420;-0.040;2023-05-27T02:52:06;20.88;;;2.90;;
45836;SDS011;31548;51.420;-0.040;2023-05-27T02:54:33;16.60;;;2.53;;
45836;SDS011;31548;51.420;-0.040;2023-05-27T02:57:01;23.00;;;3.00;;
45836;SDS011;31548;51.420;-0.040;2023-05-27T02:59:28;15.57;;;2.28;;
45836;SDS011;31548;51.420;-0.040;2023-05-27T03:01:56;20.35;;;1.92;;
45836;SDS011;31548;51.420;-0.040;2023-05-27T03:04:23;21.75;;;2.92;;
45836;SDS011;31548;51.420;-0.040;2023-05-27T03:06:51;23.23;;;2.38;;
45836;SDS011;31548;51.420;-0.040;2023-05-27T03:09:19;14.60;;;2.03;;
45836;SDS011;31548;51.420;-0.040;2023-05-27T03:11:47;11.98;;;2.03;;
45836;SDS011;31548;51.420;-0.040;2023-05-27T03:14:14;17.77;;;2.10;;
45836;SDS011;31548;51.420;-0.040;2023-05-27T03:16:41;15.40;;;2.20;;
45836;SDS011;31548;51.420;-0.040;2023-05-27T03:19:09;13.95;;;2.88;;
45836;SDS011;31548;51.420;-0.040;2023-05-27T03:21:36;20.15;;;3.13;;
45836;SDS011;31548;51.420;-0.040;2023-05-27T03:24:04;15.68;;;2.30;;
45836;SDS011;31548;51.420;-0.040;2023-05-27T03:26:32;18.52;;;2.42;;
45836;SDS011;31548;51.420;-0.040;2023-05-27T03:29:03;21.23;;;3.55;;
45836;SDS011;31548;51.420;-0.040;2023-05-27T03:31:31;17.52;;;2.42;;
45836;SDS011;31548;51.420;-0.040;2023-05-27T03:34:04;17.50;;;2.42;;
45836;SDS011;31548;51.420;-0.040;2023-05-27T03:36:31;19.67;;;2.88;;
45836;SDS011;31548;51.420;-0.040;2023-05-27T03:38:59;20.95;;;2.70;;
45836;SDS011;31548;51.420;-0.040;2023-05-27T03:41:31;18.85;;;2.35;;
45836;SDS011;31548;51.420;-0.040;2023-05-27T03:43:59;21.52;;;3.05;;
45836;SDS011;31548;51.420;-0.040;2023-05-27T03:46:26;17.25;;;2.67;;
45836;SDS011;31548;51.420;-0.040;2023-05-27T03:48:54;18.35;;;2.83;;
45836;SDS011;31548;51.420;-0.040;2023-05-27T03:51:22;19.58;;;2.60;;
45836;SDS011;31548;51.420;-0.040;2023-05-27T03:53:50;13.45;;;2.17;;
45836;SDS011;31548;51.420;-0.040;2023-05-27T03:56:17;13.30;;;3.55;;
45836;SDS011;31548;51.420;-0.040;2023-05-27T03:58:45;15.65;;;2.83;;
45836;SDS011;31548;51.420;-0.040;2023-05-27T04:01:12;13.90;;;2.65;;
45836;SDS011;31548;51.420;-0.040;2023-05-27T04:03:40;19.80;;;3.72;;
45836;SDS011;31548;51.420;-0.040;2023-05-27T04:06:08;16.40;;;2.75;;
45836;SDS011;31548;51.420;-0.040;2023-05-27T04:08:38;11.98;;;3.03;;
45836;SDS011;31548;51.420;-0.040;2023-05-27T04:11:10;15.27;;;2.85;;
45836;SDS011;31548;51.420;-0.040;2023-05-27T04:13:42;16.60;;;2.73;;
45836;SDS011;31548;51.420;-0.040;2023-05-27T04:16:10;19.38;;;3.13;;
45836;SDS011;31548;51.420;-0.040;2023-05-27T04:18:38;14.32;;;2.20;;
45836;SDS011;31548;51.420;-0.040;2023-05-27T04:21:05;16.60;;;3.00;;
45836;SDS011;31548;51.420;-0.040;2023-05-27T04:23:35;18.67;;;2.90;;
45836;SDS011;31548;51.420;-0.040;2023-05-27T04:26:03;16.13;;;2.75;;
45836;SDS011;31548;51.420;-0.040;2023-05-27T04:28:34;16.00;;;2.78;;
45836;SDS011;31548;51.420;-0.040;2023-05-27T04:31:02;14.88;;;3.05;;
45836;SDS011;31548;51.420;-0.040;2023-05-27T04:33:36;12.60;;;2.03;;
45836;SDS011;31548;51.420;-0.040;2023-05-27T04:36:07;26.88;;;2.97;;
45836;SDS011;31548;51.420;-0.040;2023-05-27T04:38:51;13.27;;;2.90;;
45836;SDS011;31548;51.420;-0.040;2023-05-27T04:41:20;11.93;;;2.35;;
45836;SDS011;31548;51.420;-0.040;2023-05-27T04:44:08;19.13;;;3.83;;
45836;SDS011;31548;51.420;-0.040;2023-05-27T04:46:44;24.50;;;3.97;;
45836;SDS011;31548;51.420;-0.040;2023-05-27T04:49:11;20.40;;;4.40;;
45836;SDS011;31548;51.420;-0.040;2023-05-27T04:51:39;21.35;;;3.72;;
45836;SDS011;31548;51.420;-0.040;2023-05-27T04:54:07;22.23;;;3.42;;
45836;SDS011;31548;51.420;-0.040;2023-05-27T04:56:34;17.23;;;2.40;;
45836;SDS011;31548;51.420;-0.040;2023-05-27T04:59:02;13.23;;;2.10;;
45836;SDS011;31548;51.420;-0.040;2023-05-27T05:01:32;19.10;;;2.60;;
45836;SDS011;31548;51.420;-0.040;2023-05-27T05:04:25;21.80;;;2.80;;
45836;SDS011;31548;51.420;-0.040;2023-05-27T05:06:59;19.83;;;4.18;;
45836;SDS011;31548;51.420;-0.040;2023-05-27T05:09:28;14.75;;;2.72;;
45836;SDS011;31548;51.420;-0.040;2023-05-27T05:11:59;19.80;;;2.72;;
45836;SDS011;31548;51.420;-0.040;2023-05-27T05:14:33;11.65;;;2.45;;
45836;SDS011;31548;51.420;-0.040;2023-05-27T05:17:01;16.45;;;3.08;;
45836;SDS011;31548;51.420;-0.040;2023-05-27T05:19:29;30.67;;;4.43;;
45836;SDS011;31548;51.420;-0.040;2023-05-27T05:21:56;20.48;;;3.40;;
45836;SDS011;31548;51.420;-0.040;2023-05-27T05:24:25;16.60;;;2.97;;
45836;SDS011;31548;51.420;-0.040;2023-05-27T05:26:53;16.58;;;2.80;;
45836;SDS011;31548;51.420;-0.040;2023-05-27T05:29:21;18.38;;;4.35;;
45836;SDS011;31548;51.420;-0.040;2023-05-27T05:31:51;17.77;;;3.28;;
45836;SDS011;31548;51.420;-0.040;2023-05-27T05:34:21;27.30;;;4.38;;
45836;SDS011;31548;51.420;-0.040;2023-05-27T05:36:49;23.75;;;3.22;;
45836;SDS011;31548;51.420;-0.040;2023-05-27T05:39:17;20.48;;;2.45;;
45836;SDS011;31548;51.420;-0.040;2023-05-27T05:41:48;19.15;;;4.68;;
45836;SDS011;31548;51.420;-0.040;2023-05-27T05:44:17;15.07;;;2.75;;
45836;SDS011;31548;51.420;-0.040;2023-05-27T05:46:46;19.25;;;3.10;;
45836;SDS011;31548;51.420;-0.040;2023-05-27T05:49:13;15.00;;;2.58;;
45836;SDS011;31548;51.420;-0.040;2023-05-27T05:51:44;27.25;;;3.45;;
45836;SDS011;31548;51.420;-0.040;2023-05-27T05:54:11;15.82;;;2.88;;
45836;SDS011;31548;51.420;-0.040;2023-05-27T05:56:43;18.67;;;1.92;;
45836;SDS011;31548;51.420;-0.040;2023-05-27T05:59:11;17.50;;;2.28;;
45836;SDS011;31548;51.420;-0.040;2023-05-27T06:01:38;13.48;;;2.97;;
45836;SDS011;31548;51.420;-0.040;2023-05-27T06:04:06;17.60;;;3.00;;
45836;SDS011;31548;51.420;-0.040;2023-05-27T06:06:37;18.20;;;2.72;;
45836;SDS011;31548;51.420;-0.040;2023-05-27T06:09:23;15.63;;;3.20;;
45836;SDS011;31548;51.420;-0.040;2023-05-27T06:11:55;20.08;;;2.95;;
45836;SDS011;31548;51.420;-0.040;2023-05-27T06:14:23;17.42;;;2.88;;
45836;SDS011;31548;51.420;-0.040;2023-05-27T06:16:54;14.98;;;2.40;;
45836;SDS011;31548;51.420;-0.040;2023-05-27T06:19:21;23.52;;;4.30;;
45836;SDS011;31548;51.420;-0.040;2023-05-27T06:21:49;10.23;;;1.75;;
45836;SDS011;31548;51.420;-0.040;2023-05-27T06:24:30;15.43;;;2.78;;
45836;SDS011;31548;51.420;-0.040;2023-05-27T06:27:15;34.50;;;6.18;;
45836;SDS011;31548;51.420;-0.040;2023-05-27T06:29:43;16.13;;;3.08;;
45836;SDS011;31548;51.420;-0.040;2023-05-27T06:32:13;26.08;;;3.45;;
45836;SDS011;31548;51.420;-0.040;2023-05-27T06:34:41;18.67;;;4.60;;
45836;SDS011;31548;51.420;-0.040;2023-05-27T06:37:09;10.57;;;2.25;;
45836;SDS011;31548;51.420;-0.040;2023-05-27T06:39:36;18.67;;;2.97;;
45836;SDS011;31548;51.420;-0.040;2023-05-27T06:42:04;14.00;;;2.13;;
45836;SDS011;31548;51.420;-0.040;2023-05-27T06:44:52;18.23;;;2.25;;
45836;SDS011;31548;51.420;-0.040;2023-05-27T06:47:24;18.33;;;2.78;;
45836;SDS011;31548;51.420;-0.040;2023-05-27T06:49:51;15.60;;;2.35;;
45836;SDS011;31548;51.420;-0.040;2023-05-27T06:52:19;18.20;;;3.05;;
45836;SDS011;31548;51.420;-0.040;2023-05-27T06:55:05;16.38;;;2.13;;
45836;SDS011;31548;51.420;-0.040;2023-05-27T06:57:51;14.90;;;2.20;;
45836;SDS011;31548;51.420;-0.040;2023-05-27T07:00:39;12.75;;;2.60;;
45836;SDS011;31548;51.420;-0.040;2023-05-27T07:03:30;18.13;;;2.25;;
45836;SDS011;31548;51.420;-0.040;2023-05-27T07:05:58;17.88;;;2.17;;
45836;SDS011;31548;51.420;-0.040;2023-05-27T07:08:29;11.05;;;2.20;;
45836;SDS011;31548;51.420;-0.040;2023-05-27T07:11:09;18.92;;;2.83;;
45836;SDS011;31548;51.420;-0.040;2023-05-27T07:13:37;14.10;;;2.22;;
45836;SDS011;31548;51.420;-0.040;2023-05-27T07:16:05;12.88;;;3.53;;
45836;SDS011;31548;51.420;-0.040;2023-05-27T07:18:32;12.05;;;2.22;;
45836;SDS011;31548;51.420;-0.040;2023-05-27T07:21:02;20.88;;;2.75;;
45836;SDS011;31548;51.420;-0.040;2023-05-27T07:23:32;14.35;;;2.28;;
45836;SDS011;31548;51.420;-0.040;2023-05-27T07:26:15;15.70;;;2.58;;
45836;SDS011;31548;51.420;-0.040;2023-05-27T07:28:43;10.68;;;1.67;;
45836;SDS011;31548;51.420;-0.040;2023-05-27T07:31:19;22.70;;;2.60;;
45836;SDS011;31548;51.420;-0.040;2023-05-27T07:33:53;13.48;;;2.05;;
45836;SDS011;31548;51.420;-0.040;2023-05-27T07:36:21;13.50;;;2.00;;
45836;SDS011;31548;51.420;-0.040;2023-05-27T07:38:48;14.43;;;1.85;;
45836;SDS011;31548;51.420;-0.040;2023-05-27T07:41:16;13.45;;;2.53;;
45836;SDS011;31548;51.420;-0.040;2023-05-27T07:43:43;21.58;;;2.67;;
45836;SDS011;31548;51.420;-0.040;2023-05-27T07:46:11;6.50;;;1.73;;
45836;SDS011;31548;51.420;-0.040;2023-05-27T07:48:39;13.55;;;2.05;;
45836;SDS011;31548;51.420;-0.040;2023-05-27T07:51:08;12.77;;;1.98;;
45836;SDS011;31548;51.420;-0.040;2023-05-27T07:53:35;13.45;;;1.92;;
45836;SDS011;31548;51.420;-0.040;2023-05-27T07:56:03;14.25;;;2.40;;
45836;SDS011;31548;51.420;-0.040;2023-05-27T07:58:30;16.27;;;2.95;;
45836;SDS011;31548;51.420;-0.040;2023-05-27T08:01:08;15.00;;;3.25;;
45836;SDS011;31548;51.420;-0.040;2023-05-27T08:03:37;11.88;;;1.60;;
45836;SDS011;31548;51.420;-0.040;2023-05-27T08:06:23;12.02;;;2.40;;
45836;SDS011;31548;51.420;-0.040;2023-05-27T08:08:50;17.05;;;2.88;;
45836;SDS011;31548;51.420;-0.040;2023-05-27T08:11:56;10.60;;;2.10;;
45836;SDS011;31548;51.420;-0.040;2023-05-27T08:14:29;8.05;;;2.33;;
45836;SDS011;31548;51.420;-0.040;2023-05-27T08:17:25;8.13;;;1.67;;
45836;SDS011;31548;51.420;-0.040;2023-05-27T08:20:13;14.27;;;3.63;;
45836;SDS011;31548;51.420;-0.040;2023-05-27T08:22:59;14.35;;;2.88;;
45836;SDS011;31548;51.420;-0.040;2023-05-27T08:25:46;14.38;;;2.33;;
45836;SDS011;31548;51.420;-0.040;2023-05-27T08:28:44;15.00;;;2.63;;
45836;SDS011;31548;51.420;-0.040;2023-05-27T08:31:30;10.43;;;1.90;;
45836;SDS011;31548;51.420;-0.040;2023-05-27T08:33:59;15.25;;;2.22;;
45836;SDS011;31548;51.420;-0.040;2023-05-27T08:36:27;15.98;;;2.97;;
45836;SDS011;31548;51.420;-0.040;2023-05-27T08:38:56;19.65;;;3.22;;
45836;SDS011;31548;51.420;-0.040;2023-05-27T08:41:30;13.85;;;2.50;;
45836;SDS011;31548;51.420;-0.040;2023-05-27T08:44:01;14.60;;;2.60;;
45836;SDS011;31548;51.420;-0.040;2023-05-27T08:46:53;20.40;;;3.75;;
45836;SDS011;31548;51.420;-0.040;2023-05-27T08:49:22;18.55;;;3.85;;
45836;SDS011;31548;51.420;-0.040;2023-05-27T08:51:49;11.82;;;2.65;;
45836;SDS011;31548;51.420;-0.040;2023-05-27T08:54:21;24.05;;;3.83;;
45836;SDS011;31548;51.420;-0.040;2023-05-27T08:56:51;16.42;;;3.13;;
45836;SDS011;31548;51.420;-0.040;2023-05-27T08:59:22;16.08;;;2.85;;
45836;SDS011;31548;51.420;-0.040;2023-05-27T09:01:51;11.75;;;2.85;;
45836;SDS011;31548;51.420;-0.040;2023-05-27T09:04:19;15.23;;;4.00;;
45836;SDS011;31548;51.420;-0.040;2023-05-27T09:06:46;19.42;;;5.28;;
45836;SDS011;31548;51.420;-0.040;2023-05-27T09:09:14;19.30;;;6.55;;
45836;SDS011;31548;51.420;-0.040;2023-05-27T09:11:41;30.60;;;9.75;;
45836;SDS011;31548;51.420;-0.040;2023-05-27T09:14:18;19.92;;;7.78;;
45836;SDS011;31548;51.420;-0.040;2023-05-27T09:16:47;24.83;;;9.32;;
45836;SDS011;31548;51.420;-0.040;2023-05-27T09:19:18;22.27;;;8.68;;
45836;SDS011;31548;51.420;-0.040;2023-05-27T09:21:46;21.55;;;9.05;;
45836;SDS011;31548;51.420;-0.040;2023-05-27T09:24:13;27.73;;;11.68;;
45836;SDS011;31548;51.420;-0.040;2023-05-27T09:26:41;42.83;;;19.83;;
45836;SDS011;31548;51.420;-0.040;2023-05-27T09:29:08;30.27;;;14.93;;
45836;SDS011;31548;51.420;-0.040;2023-05-27T09:31:42;32.28;;;14.95;;
45836;SDS011;31548;51.420;-0.040;2023-05-27T09:34:12;24.20;;;14.68;;
45836;SDS011;31548;51.420;-0.040;2023-05-27T09:36:47;36.88;;;16.90;;
45836;SDS011;31548;51.420;-0.040;2023-05-27T09:39:17;44.83;;;19.40;;
45836;SDS011;31548;51.420;-0.040;2023-05-27T09:41:55;36.78;;;16.95;;
45836;SDS011;31548;51.420;-0.040;2023-05-27T09:44:28;34.55;;;15.40;;
45836;SDS011;31548;51.420;-0.040;2023-05-27T09:46:57;28.25;;;13.55;;
45836;SDS011;31548;51.420;-0.040;2023-05-27T09:49:25;30.25;;;12.63;;
45836;SDS011;31548;51.420;-0.040;2023-05-27T09:51:54;32.92;;;10.13;;
45836;SDS011;31548;51.420;-0.040;2023-05-27T09:54:23;22.52;;;7.68;;
45836;SDS011;31548;51.420;-0.040;2023-05-27T09:56:51;22.92;;;8.07;;
45836;SDS011;31548;51.420;-0.040;2023-05-27T09:59:19;20.35;;;6.70;;
45836;SDS011;31548;51.420;-0.040;2023-05-27T10:01:46;21.00;;;6.90;;
45836;SDS011;31548;51.420;-0.040;2023-05-27T10:04:16;20.13;;;7.13;;
45836;SDS011;31548;51.420;-0.040;2023-05-27T10:06:46;18.90;;;6.28;;
45836;SDS011;31548;51.420;-0.040;2023-05-27T10:09:15;26.25;;;7.10;;
45836;SDS011;31548;51.420;-0.040;2023-05-27T10:11:43;16.85;;;5.57;;
45836;SDS011;31548;51.420;-0.040;2023-05-27T10:14:11;22.67;;;5.88;;
45836;SDS011;31548;51.420;-0.040;2023-05-27T10:16:39;15.77;;;4.72;;
45836;SDS011;31548;51.420;-0.040;2023-05-27T10:19:17;14.95;;;5.07;;
45836;SDS011;31548;51.420;-0.040;2023-05-27T10:21:44;17.33;;;4.70;;
45836;SDS011;31548;51.420;-0.040;2023-05-27T10:24:12;15.13;;;4.68;;
45836;SDS011;31548;51.420;-0.040;2023-05-27T10:26:43;17.05;;;5.72;;
45836;SDS011;31548;51.420;-0.040;2023-05-27T10:29:12;13.18;;;3.92;;
45836;SDS011;31548;51.420;-0.040;2023-05-27T10:31:44;25.08;;;4.63;;
45836;SDS011;31548;51.420;-0.040;2023-05-27T10:34:18;22.38;;;5.85;;
45836;SDS011;31548;51.420;-0.040;2023-05-27T10:36:46;25.33;;;5.03;;
45836;SDS011;31548;51.420;-0.040;2023-05-27T10:39:24;15.57;;;4.07;;
45836;SDS011;31548;51.420;-0.040;2023-05-27T10:41:55;14.77;;;4.00;;
45836;SDS011;31548;51.420;-0.040;2023-05-27T10:44:33;11.50;;;2.88;;
45836;SDS011;31548;51.420;-0.040;2023-05-27T10:49:36;28.77;;;5.15;;
45836;SDS011;31548;51.420;-0.040;2023-05-27T10:52:06;17.17;;;3.90;;
45836;SDS011;31548;51.420;-0.040;2023-05-27T10:54:40;23.63;;;3.50;;
45836;SDS011;31548;51.420;-0.040;2023-05-27T10:57:13;14.00;;;3.50;;
45836;SDS011;31548;51.420;-0.040;2023-05-27T11:02:12;12.20;;;2.58;;
45836;SDS011;31548;51.420;-0.040;2023-05-27T11:04:40;11.10;;;2.28;;
45836;SDS011;31548;51.420;-0.040;2023-05-27T11:07:07;11.52;;;1.75;;
45836;SDS011;31548;51.420;-0.040;2023-05-27T11:09:48;18.17;;;2.75;;
45836;SDS011;31548;51.420;-0.040;2023-05-27T11:12:18;13.30;;;3.30;;
45836;SDS011;31548;51.420;-0.040;2023-05-27T11:14:54;19.15;;;2.85;;
45836;SDS011;31548;51.420;-0.040;2023-05-27T11:17:22;12.13;;;2.20;;
45836;SDS011;31548;51.420;-0.040;2023-05-27T11:19:52;15.05;;;2.83;;
45836;SDS011;31548;51.420;-0.040;2023-05-27T11:22:20;13.27;;;2.47;;
45836;SDS011;31548;51.420;-0.040;2023-05-27T11:25:00;11.90;;;2.08;;
45836;SDS011;31548;51.420;-0.040;2023-05-27T11:27:33;19.08;;;2.17;;
45836;SDS011;31548;51.420;-0.040;2023-05-27T11:30:08;15.90;;;2.15;;
45836;SDS011;31548;51.420;-0.040;2023-05-27T11:32:37;12.93;;;2.67;;
45836;SDS011;31548;51.420;-0.040;2023-05-27T11:35:05;15.75;;;1.92;;
45836;SDS011;31548;51.420;-0.040;2023-05-27T11:37:39;14.43;;;2.65;;
45836;SDS011;31548;51.420;-0.040;2023-05-27T11:40:10;11.90;;;1.45;;
45836;SDS011;31548;51.420;-0.040;2023-05-27T11:42:42;9.15;;;1.48;;
45836;SDS011;31548;51.420;-0.040;2023-05-27T11:45:15;8.70;;;1.80;;
45836;SDS011;31548;51.420;-0.040;2023-05-27T11:47:43;8.45;;;1.63;;
45836;SDS011;31548;51.420;-0.040;2023-05-27T11:50:17;12.05;;;2.05;;
45836;SDS011;31548;51.420;-0.040;2023-05-27T11:55:23;9.93;;;2.45;;
45836;SDS011;31548;51.420;-0.040;2023-05-27T11:57:51;14.98;;;1.65;;
45836;SDS011;31548;51.420;-0.040;2023-05-27T12:00:18;9.43;;;1.98;;
45836;SDS011;31548;51.420;-0.040;2023-05-27T12:02:46;17.67;;;2.03;;
45836;SDS011;31548;51.420;-0.040;2023-05-27T12:05:14;11.43;;;2.03;;
45836;SDS011;31548;51.420;-0.040;2023-05-27T12:08:00;8.07;;;1.70;;
45836;SDS011;31548;51.420;-0.040;2023-05-27T12:10:27;11.05;;;1.55;;
45836;SDS011;31548;51.420;-0.040;2023-05-27T12:13:04;14.88;;;2.95;;
45836;SDS011;31548;51.420;-0.040;2023-05-27T12:15:33;9.82;;;2.00;;
45836;SDS011;31548;51.420;-0.040;2023-05-27T12:18:00;6.68;;;1.67;;
45836;SDS011;31548;51.420;-0.040;2023-05-27T12:20:28;11.75;;;1.65;;
45836;SDS011;31548;51.420;-0.040;2023-05-27T12:22:56;8.38;;;2.15;;
45836;SDS011;31548;51.420;-0.040;2023-05-27T12:25:23;9.82;;;1.98;;
45836;SDS011;31548;51.420;-0.040;2023-05-27T12:27:51;9.77;;;2.13;;
45836;SDS011;31548;51.420;-0.040;2023-05-27T12:30:18;15.90;;;1.90;;
45836;SDS011;31548;51.420;-0.040;2023-05-27T12:32:46;8.50;;;1.45;;
45836;SDS011;31548;51.420;-0.040;2023-05-27T12:35:13;7.82;;;1.40;;
45836;SDS011;31548;51.420;-0.040;2023-05-27T12:37:41;15.43;;;2.30;;
45836;SDS011;31548;51.420;-0.040;2023-05-27T12:40:12;14.82;;;2.60;;
45836;SDS011;31548;51.420;-0.040;2023-05-27T12:42:41;5.97;;;1.50;;
45836;SDS011;31548;51.420;-0.040;2023-05-27T12:45:09;9.05;;;2.13;;
45836;SDS011;31548;51.420;-0.040;2023-05-27T12:47:37;7.25;;;2.10;;
45836;SDS011;31548;51.420;-0.040;2023-05-27T12:50:05;10.93;;;1.85;;
45836;SDS011;31548;51.420;-0.040;2023-05-27T12:52:33;12.25;;;2.50;;
45836;SDS011;31548;51.420;-0.040;2023-05-27T12:55:02;10.15;;;1.92;;
45836;SDS011;31548;51.420;-0.040;2023-05-27T12:57:29;11.43;;;2.45;;
45836;SDS011;31548;51.420;-0.040;2023-05-27T12:59:57;15.15;;;2.67;;
45836;SDS011;31548;51.420;-0.040;2023-05-27T13:02:24;15.23;;;2.38;;
45836;SDS011;31548;51.420;-0.040;2023-05-27T13:04:51;14.68;;;3.03;;
45836;SDS011;31548;51.420;-0.040;2023-05-27T13:07:19;11.55;;;2.83;;
45836;SDS011;31548;51.420;-0.040;2023-05-27T13:09:46;12.10;;;2.72;;
45836;SDS011;31548;51.420;-0.040;2023-05-27T13:12:13;12.57;;;2.80;;
45836;SDS011;31548;51.420;-0.040;2023-05-27T13:14:41;10.43;;;1.95;;
45836;SDS011;31548;51.420;-0.040;2023-05-27T13:17:09;11.13;;;2.17;;
45836;SDS011;31548;51.420;-0.040;2023-05-27T13:19:36;12.60;;;2.15;;
45836;SDS011;31548;51.420;-0.040;2023-05-27T13:22:04;12.73;;;1.70;;
45836;SDS011;31548;51.420;-0.040;2023-05-27T13:24:32;9.38;;;1.35;;
45836;SDS011;31548;51.420;-0.040;2023-05-27T13:26:59;8.80;;;1.73;;
45836;SDS011;31548;51.420;-0.040;2023-05-27T13:29:27;9.38;;;1.50;;
45836;SDS011;31548;51.420;-0.040;2023-05-27T13:31:54;5.63;;;1.02;;
45836;SDS011;31548;51.420;-0.040;2023-05-27T13:34:22;12.80;;;1.60;;
45836;SDS011;31548;51.420;-0.040;2023-05-27T13:36:50;9.68;;;1.60;;
45836;SDS011;31548;51.420;-0.040;2023-05-27T13:39:18;9.80;;;1.52;;
45836;SDS011;31548;51.420;-0.040;2023-05-27T13:41:45;4.95;;;1.30;;
45836;SDS011;31548;51.420;-0.040;2023-05-27T13:44:12;16.15;;;2.00;;
45836;SDS011;31548;51.420;-0.040;2023-05-27T13:46:40;10.23;;;1.80;;
45836;SDS011;31548;51.420;-0.040;2023-05-27T13:49:07;8.15;;;1.75;;
45836;SDS011;31548;51.420;-0.040;2023-05-27T13:51:41;8.90;;;1.83;;
45836;SDS011;31548;51.420;-0.040;2023-05-27T13:54:10;8.25;;;1.75;;
45836;SDS011;31548;51.420;-0.040;2023-05-27T13:56:38;5.22;;;1.33;;
45836;SDS011;31548;51.420;-0.040;2023-05-27T13:59:05;13.88;;;1.65;;
45836;SDS011;31548;51.420;-0.040;2023-05-27T14:01:32;11.00;;;1.15;;
45836;SDS011;31548;51.420;-0.040;2023-05-27T14:04:00;13.07;;;1.83;;
45836;SDS011;31548;51.420;-0.040;2023-05-27T14:06:27;8.80;;;1.85;;
45836;SDS011;31548;51.420;-0.040;2023-05-27T14:08:55;8.55;;;1.05;;
45836;SDS011;31548;51.420;-0.040;2023-05-27T14:11:22;5.75;;;1.30;;
45836;SDS011;31548;51.420;-0.040;2023-05-27T14:13:50;10.55;;;1.70;;
45836;SDS011;31548;51.420;-0.040;2023-05-27T14:16:21;6.07;;;1.25;;
45836;SDS011;31548;51.420;-0.040;2023-05-27T14:18:49;10.23;;;1.50;;
45836;SDS011;31548;51.420;-0.040;2023-05-27T14:21:17;9.23;;;1.83;;
45836;SDS011;31548;51.420;-0.040;2023-05-27T14:23:44;5.72;;;1.20;;
45836;SDS011;31548;51.420;-0.040;2023-05-27T14:26:12;13.27;;;2.03;;
45836;SDS011;31548;51.420;-0.040;2023-05-27T14:28:39;11.07;;;1.60;;
45836;SDS011;31548;51.420;-0.040;2023-05-27T14:31:07;10.50;;;1.48;;
45836;SDS011;31548;51.420;-0.040;2023-05-27T14:33:34;6.18;;;1.52;;
45836;SDS011;31548;51.420;-0.040;2023-05-27T14:36:02;10.23;;;1.75;;
45836;SDS011;31548;51.420;-0.040;2023-05-27T14:38:29;9.73;;;2.03;;
45836;SDS011;31548;51.420;-0.040;2023-05-27T14:40:57;8.68;;;1.42;;
45836;SDS011;31548;51.420;-0.040;2023-05-27T14:43:24;9.18;;;1.60;;
45836;SDS011;31548;51.420;-0.040;2023-05-27T14:45:52;10.93;;;1.73;;
45836;SDS011;31548;51.420;-0.040;2023-05-27T14:48:19;10.38;;;1.58;;
45836;SDS011;31548;51.420;-0.040;2023-05-27T14:50:47;15.48;;;2.20;;
45836;SDS011;31548;51.420;-0.040;2023-05-27T14:53:14;6.90;;;1.60;;
45836;SDS011;31548;51.420;-0.040;2023-05-27T14:55:42;8.95;;;1.63;;
45836;SDS011;31548;51.420;-0.040;2023-05-27T14:58:09;6.50;;;1.40;;
45836;SDS011;31548;51.420;-0.040;2023-05-27T15:00:37;8.20;;;1.80;;
45836;SDS011;31548;51.420;-0.040;2023-05-27T15:03:04;7.18;;;1.40;;